Avera, GA

12:34 AM EST on December 21, 2014 (GMT -0500)
RAWS LOUISVILLE GA US | Change Station
CLOSE
Current Station
Personal Weather Station
Location: Louisville, GA
Elevation: 311 ft
Nearby Weather Stations

Elev 311 ft 32.99 °N, 82.38 °W | Updated 31 minutes ago

Overcast
Overcast
49 °F
Feels Like 47 °F
N
5
Wind Variable Wind from East
Gusts 7.0 mph

Today
High -- | Low -- °F
--% Chance of Precip.
Yesterday
High -- | Low -- °F
Precip. -- in
7:29 AM 5:27 PM
Waning Crescent, 1% visible
Pressure 30.26 in
Visibility 0.5 miles
Clouds Overcast 200 ft
Windchill 47 °F
Dew Point 48 °F
Humidity 97%
Rainfall 0.09 in
Snow Depth Not available.
UV 0 out of 12
Pollen .40 out of 12
Air Quality Not available.
Flu Activity Not available.
METAR KHQU 210515Z AUTO 05003KT 1/2SM OVC002 09/09 A3026 RMK AO1 T00930093

More Conditions Fewer Conditions

Pressure 30.26 in
Visibility 0.5 miles
Clouds Overcast 200 ft
Windchill 47 °F
Dew Point 48 °F
Humidity 97%
Rainfall 0.09 in
Snow Depth Not available.
UV 0 out of 12
Pollen .40 out of 12
Air Quality Not available.
Flu Activity Not available.
METAR KHQU 210515Z AUTO 05003KT 1/2SM OVC002 09/09 A3026 RMK AO1 T00930093

More Conditions Fewer Conditions

10-Day Weather Forecast

Almanac

Astronomy

Dec. 21, 2014 Rise Set
Actual Time
Civil Twilight
Nautical Twilight
Astronomical Twilight
Moon
Length of Visible Light
Length of Day
Tomorrow will be .
, % of the Moon is Illuminated

Today's Extremes

State Highs State Lows

Community

WunderPhotos

Upload Photos

1,779,359 photos uploaded!

WunderBlogs® & News

Nearby

Air Quality

  Air Quality AQ Index Pollutant
Not available.

Snow Depth

Station Depth Elevation

Earthquake Activity

City Distance Mag. Time & Date
Minimum magnitude displayed is 2.5.

Coastal Water Temperatures

Place Temperature

Nearby Weather Stations